createdAt,value
2019-03-12T00:00:13.106Z,1.00
2019-03-12T00:01:11.663Z,0.90
2019-03-12T00:02:15.663Z,1.30
2019-03-12T00:03:11.663Z,1.20
2019-03-12T00:04:11.665Z,1.10
2019-03-12T00:05:12.166Z,1.10
2019-03-12T00:06:12.164Z,0.90
2019-03-12T00:07:12.162Z,1.10
2019-03-12T00:08:15.681Z,1.00
2019-03-12T00:09:12.671Z,1.10
2019-03-12T00:10:12.684Z,1.20
2019-03-12T00:11:12.662Z,1.10
2019-03-12T00:12:12.661Z,1.00
2019-03-12T00:13:37.661Z,1.00
2019-03-12T00:14:13.162Z,1.30
2019-03-12T00:15:13.181Z,1.00
2019-03-12T00:16:13.166Z,1.00
2019-03-12T00:18:49.393Z,1.40
2019-03-12T00:19:45.394Z,1.00
2019-03-12T00:20:45.393Z,1.20
2019-03-12T00:22:06.897Z,1.00
2019-03-12T00:22:45.897Z,1.10
2019-03-12T00:23:49.395Z,1.10
2019-03-12T00:24:45.897Z,0.90
2019-03-12T00:25:46.395Z,1.00
2019-03-12T00:26:46.393Z,1.30
2019-03-12T00:27:46.392Z,1.30
2019-03-12T00:28:50.393Z,1.10
2019-03-12T00:29:46.893Z,1.30
2019-03-12T00:32:39.756Z,1.20
2019-03-12T00:34:56.433Z,1.30
2019-03-12T00:36:10.995Z,1.50
2019-03-12T00:36:49.998Z,1.20
2019-03-12T00:38:11.498Z,1.60
2019-03-12T00:38:50.497Z,1.10
2019-03-12T00:40:15.025Z,1.20
2019-03-12T00:40:50.498Z,1.30
2019-03-12T00:42:11.999Z,1.30
2019-03-12T00:43:11.998Z,1.20
2019-03-12T00:44:11.997Z,1.20
2019-03-12T00:44:51.000Z,1.20
2019-03-12T00:46:15.498Z,1.30
2019-03-12T00:46:51.497Z,1.00
2019-03-12T00:47:51.497Z,1.40
2019-03-12T00:48:51.499Z,1.30
2019-03-12T00:51:26.230Z,1.10
2019-03-12T00:52:23.227Z,1.10
2019-03-12T00:53:23.809Z,1.00
2019-03-12T00:54:23.827Z,1.30
2019-03-12T00:55:25.749Z,1.20
2019-03-12T00:56:48.238Z,0.90
2019-03-12T00:57:23.727Z,1.10
2019-03-12T00:58:24.224Z,1.20
2019-03-12T00:59:24.279Z,1.00
2019-03-12T01:00:24.235Z,1.00
2019-03-12T01:01:24.226Z,1.00
2019-03-12T01:02:28.229Z,1.30
2019-03-12T01:03:24.727Z,1.20
2019-03-12T01:04:24.759Z,1.10
2019-03-12T01:05:24.727Z,0.90
2019-03-12T01:06:25.226Z,1.00
2019-03-12T01:07:25.225Z,1.10
2019-03-12T01:08:28.226Z,1.00
2019-03-12T01:09:25.249Z,1.00
2019-03-12T01:10:46.732Z,1.00
2019-03-12T01:11:25.731Z,1.00
2019-03-12T01:12:25.725Z,1.30
2019-03-12T01:13:30.711Z,0.90
2019-03-12T01:15:57.441Z,1.00
2019-03-12T01:16:57.448Z,0.90
2019-03-12T01:18:18.453Z,1.10
2019-03-12T01:19:00.948Z,1.10
2019-03-12T01:19:57.955Z,1.00
2019-03-12T01:20:57.950Z,1.30
2019-03-12T01:21:57.951Z,1.00
2019-03-12T01:22:58.453Z,1.10
2019-03-12T01:24:22.448Z,1.30
2019-03-12T01:24:58.446Z,1.10
2019-03-12T01:25:58.449Z,1.00
2019-03-12T01:28:30.179Z,1.00
2019-03-12T01:29:34.185Z,1.00
2019-03-12T01:30:30.184Z,1.00
2019-03-12T01:31:51.692Z,0.90
2019-03-12T01:32:30.687Z,1.70
2019-03-12T01:33:33.118Z,1.00
2019-03-12T01:34:30.684Z,1.10
2019-03-12T01:35:35.195Z,1.00
2019-03-12T01:36:31.182Z,1.30
2019-03-12T01:37:34.121Z,1.00
2019-03-12T01:38:31.184Z,1.10
2019-03-12T01:39:31.682Z,0.90
2019-03-12T01:40:31.686Z,0.90
2019-03-12T01:41:35.198Z,1.00
2019-03-12T01:42:52.732Z,1.20
2019-03-12T01:45:03.417Z,0.90
2019-03-12T01:46:03.429Z,0.80
2019-03-12T01:47:07.429Z,1.00
2019-03-12T01:48:03.923Z,0.90
2019-03-12T01:49:03.925Z,0.70
2019-03-12T01:50:03.926Z,0.70
2019-03-12T01:51:03.925Z,0.90
2019-03-12T01:52:04.432Z,1.00
2019-03-12T01:53:07.423Z,0.80
2019-03-12T01:54:04.424Z,1.00
2019-03-12T01:55:04.423Z,0.90
2019-03-12T01:56:04.937Z,0.80
2019-03-12T01:57:04.927Z,0.80
2019-03-12T01:58:14.399Z,0.90
2019-03-12T01:59:04.922Z,0.80
2019-03-12T02:00:05.423Z,1.00
2019-03-12T02:01:05.424Z,0.70
2019-03-12T02:02:05.428Z,0.90
2019-03-12T02:03:05.438Z,0.80
2019-03-12T02:04:30.923Z,1.00
2019-03-12T02:05:06.034Z,0.90
2019-03-12T02:06:05.928Z,0.70
2019-03-12T02:07:05.932Z,0.90
2019-03-12T03:58:54.243Z,2.90
2019-03-12T03:59:29.163Z,3.30
2019-03-12T04:00:29.173Z,3.30
2019-03-12T04:01:29.181Z,3.40
2019-03-12T04:02:29.675Z,3.00
2019-03-12T04:03:29.666Z,3.60
2019-03-12T04:04:35.161Z,2.80
2019-03-12T04:05:29.669Z,3.30
2019-03-12T04:06:33.819Z,3.30
2019-03-12T04:07:51.168Z,3.80
2019-03-12T04:08:30.163Z,3.30
2019-03-12T04:09:34.175Z,3.70
2019-03-12T04:10:30.684Z,3.60
2019-03-12T04:11:30.664Z,3.50
2019-03-12T04:12:30.662Z,3.80
2019-03-12T04:13:30.665Z,3.50
2019-03-12T04:14:31.220Z,4.10
2019-03-12T04:15:35.161Z,4.30
2019-03-12T04:16:31.165Z,4.00
2019-03-12T04:17:31.168Z,3.60
2019-03-12T04:18:52.660Z,4.10
2019-03-12T04:19:31.667Z,3.80
2019-03-12T04:20:31.669Z,3.90
2019-03-12T04:23:06.456Z,4.40
2019-03-12T04:24:06.462Z,4.10
2019-03-12T04:25:06.480Z,4.40
2019-03-12T04:26:27.969Z,3.90
2019-03-12T04:27:10.455Z,4.30
2019-03-12T04:28:06.959Z,4.40
2019-03-12T04:29:06.958Z,4.50
2019-03-12T04:30:07.464Z,4.60
2019-03-12T04:31:07.461Z,4.10
2019-03-12T04:32:07.458Z,4.40
2019-03-12T04:33:11.458Z,4.70
2019-03-12T04:34:07.955Z,4.50
2019-03-12T04:35:07.953Z,4.30
2019-03-12T04:36:07.957Z,4.70
2019-03-12T04:37:07.961Z,4.60
2019-03-12T04:38:08.457Z,4.70
2019-03-12T04:39:11.464Z,4.50
2019-03-12T04:40:29.465Z,4.80
2019-03-12T04:41:08.465Z,5.00
2019-03-12T04:42:29.970Z,4.90
2019-03-12T04:43:08.960Z,5.10
2019-03-12T04:44:12.956Z,4.90
2019-03-12T04:45:08.957Z,4.90
2019-03-12T04:46:09.464Z,5.10
2019-03-12T04:47:09.457Z,5.60
2019-03-12T04:48:09.455Z,5.50
2019-03-12T04:49:09.459Z,5.00
2019-03-12T04:50:15.413Z,5.50
2019-03-12T04:51:09.958Z,4.90
2019-03-12T04:53:42.755Z,4.90
2019-03-12T04:54:41.329Z,4.90
2019-03-12T04:55:45.327Z,4.50
2019-03-12T04:57:04.829Z,4.60
2019-03-12T04:58:02.820Z,4.90
2019-03-12T04:58:41.815Z,5.20
2019-03-12T04:59:41.821Z,5.50
2019-03-12T05:00:42.335Z,4.60
2019-03-12T05:01:45.321Z,5.10
2019-03-12T05:02:42.320Z,4.90
2019-03-12T05:03:42.319Z,5.40
2019-03-12T05:04:42.818Z,5.30
2019-03-12T05:05:42.819Z,5.20
2019-03-12T05:06:46.843Z,5.20
2019-03-12T05:07:42.818Z,4.90
2019-03-12T05:08:43.320Z,4.80
2019-03-12T05:09:43.328Z,5.00
2019-03-12T05:11:04.317Z,5.00
2019-03-12T05:11:43.318Z,4.80
2019-03-12T05:12:47.825Z,4.90
2019-03-12T05:13:43.819Z,4.70
2019-03-12T05:14:43.158Z,5.40
2019-03-12T05:15:43.818Z,5.00
2019-03-12T05:16:43.818Z,5.10
2019-03-12T05:17:44.331Z,5.10
2019-03-12T05:18:47.818Z,5.40
2019-03-12T05:19:44.317Z,5.00
2019-03-12T05:20:44.322Z,4.90
2019-03-12T05:21:45.074Z,4.80
2019-03-12T05:22:44.875Z,4.60
2019-03-12T05:23:48.817Z,4.90
2019-03-12T05:24:44.820Z,4.70
2019-03-12T05:25:45.317Z,5.10
2019-03-12T05:26:45.317Z,4.70
2019-03-12T05:27:45.321Z,5.10
2019-03-12T05:30:24.057Z,4.30
2019-03-12T05:31:23.557Z,4.60
2019-03-12T05:32:21.123Z,4.40
2019-03-12T05:33:21.124Z,4.30
2019-03-12T05:34:24.628Z,4.40
2019-03-12T05:35:21.646Z,4.40
2019-03-12T05:36:21.622Z,3.90
2019-03-12T05:37:21.624Z,4.10
2019-03-12T05:38:43.119Z,3.80
2019-03-12T05:39:25.622Z,4.40
2019-03-12T05:40:22.122Z,3.90
2019-03-12T05:41:43.121Z,3.50
2019-03-12T05:42:22.623Z,4.10
2019-03-12T05:43:22.628Z,4.10
2019-03-12T05:44:22.645Z,3.90
2019-03-12T05:45:47.627Z,4.00
2019-03-12T05:46:23.121Z,3.70
2019-03-12T05:47:23.122Z,3.90
2019-03-12T05:48:23.123Z,4.00
2019-03-12T05:49:23.119Z,4.30
2019-03-12T05:50:23.632Z,4.50
2019-03-12T05:51:27.555Z,4.00
2019-03-12T05:52:23.616Z,3.80
2019-03-12T05:53:23.622Z,4.50
2019-03-12T05:54:24.121Z,3.80
2019-03-12T05:55:24.120Z,3.60
2019-03-12T05:56:27.620Z,3.90
2019-03-12T05:57:24.151Z,3.90
2019-03-12T05:58:45.620Z,3.80
2019-03-12T05:59:32.054Z,3.90
2019-03-12T06:00:23.978Z,3.70
2019-03-12T06:01:24.622Z,4.10
2019-03-12T06:02:49.624Z,4.10
2019-03-12T06:03:46.120Z,4.10
2019-03-12T06:04:25.119Z,3.40
2019-03-12T06:05:25.120Z,3.70
2019-03-12T06:06:25.619Z,4.20
2019-03-12T06:07:25.622Z,3.80
2019-03-12T06:08:28.619Z,3.90
2019-03-12T06:09:30.214Z,4.00
2019-03-12T06:10:26.119Z,3.80
2019-03-12T06:11:26.147Z,3.60
2019-03-12T06:12:26.125Z,3.80
2019-03-12T06:13:30.120Z,4.70
2019-03-12T06:15:57.852Z,3.90
2019-03-12T06:16:57.856Z,3.60
2019-03-12T06:17:57.858Z,3.90
2019-03-12T06:19:01.354Z,3.50
2019-03-12T06:19:58.357Z,4.00
2019-03-12T06:20:58.365Z,3.60
2019-03-12T06:23:30.460Z,3.80
2019-03-12T06:24:33.965Z,3.70
2019-03-12T06:25:30.463Z,3.60
2019-03-12T06:28:02.205Z,3.40
2019-03-12T06:29:02.199Z,3.80
2019-03-12T06:30:05.699Z,4.00
2019-03-12T06:31:02.700Z,3.60
2019-03-12T06:32:22.890Z,3.50
2019-03-12T06:33:02.712Z,3.20
2019-03-12T06:34:02.702Z,3.50
2019-03-12T06:35:06.699Z,3.70
2019-03-12T06:36:03.201Z,4.00
2019-03-12T06:37:05.204Z,3.30
2019-03-12T06:38:03.198Z,3.90
2019-03-12T06:40:38.302Z,3.70
2019-03-12T06:41:35.310Z,3.10
2019-03-12T06:42:34.773Z,3.80
2019-03-12T06:43:35.812Z,3.40
2019-03-12T06:44:34.896Z,4.00
2019-03-12T06:47:13.055Z,3.60
2019-03-12T06:48:11.626Z,3.50
2019-03-12T06:49:32.722Z,3.60
2019-03-12T06:50:11.623Z,3.60
2019-03-12T06:51:14.121Z,3.80
2019-03-12T06:52:14.557Z,3.80
2019-03-12T06:53:12.123Z,3.70
2019-03-12T06:54:12.122Z,3.60
2019-03-12T06:55:12.667Z,3.80
2019-03-12T06:56:16.621Z,3.70
2019-03-12T06:57:26.620Z,3.20
2019-03-12T06:58:12.620Z,3.40
2019-03-12T06:59:12.628Z,3.80
2019-03-12T07:00:13.128Z,4.10
2019-03-12T07:01:44.118Z,3.80
2019-03-12T07:02:13.121Z,3.70
2019-03-12T07:04:44.762Z,3.00
2019-03-12T07:05:44.734Z,3.50
2019-03-12T07:06:48.233Z,3.40
2019-03-12T07:07:45.901Z,3.60
2019-03-12T07:08:45.236Z,3.70
2019-03-12T07:09:45.232Z,3.60
2019-03-12T07:10:45.260Z,3.40
2019-03-12T07:11:49.233Z,3.40
2019-03-12T07:12:45.732Z,3.20
2019-03-12T07:13:45.072Z,3.50
2019-03-12T07:14:45.732Z,3.40
2019-03-12T07:15:45.735Z,3.40
2019-03-12T07:17:10.732Z,3.50
2019-03-12T07:18:07.232Z,3.10
2019-03-12T07:18:46.232Z,4.00
2019-03-12T07:19:46.231Z,4.40
2019-03-12T07:21:07.731Z,4.70
2019-03-12T07:21:46.732Z,4.10
2019-03-12T07:22:50.731Z,4.50
2019-03-12T07:23:46.730Z,4.60
2019-03-12T07:24:47.232Z,4.60
2019-03-12T07:25:49.582Z,4.80
2019-03-12T07:26:47.233Z,4.90
2019-03-12T07:27:47.232Z,4.60
2019-03-12T07:28:53.166Z,5.10
2019-03-12T07:30:08.731Z,4.80
2019-03-12T07:30:47.733Z,5.60
2019-03-12T07:31:47.731Z,5.50
2019-03-12T07:32:48.279Z,5.00
2019-03-12T07:33:48.235Z,5.00
2019-03-12T07:34:51.727Z,5.00
2019-03-12T07:35:48.230Z,5.30
2019-03-12T07:37:09.730Z,4.80
2019-03-12T07:37:50.730Z,4.80
2019-03-12T07:38:48.735Z,5.50
2019-03-12T07:39:52.730Z,5.50
2019-03-12T07:40:49.231Z,5.50
2019-03-12T07:41:49.230Z,5.80
2019-03-12T07:42:49.232Z,5.50
2019-03-12T07:43:49.233Z,5.60
2019-03-12T07:44:49.731Z,5.60
2019-03-12T07:45:53.729Z,5.40
2019-03-12T07:47:10.729Z,5.60
2019-03-12T07:47:49.733Z,6.30
2019-03-12T07:49:11.230Z,5.80
2019-03-12T07:49:50.229Z,6.20
2019-03-12T07:50:50.229Z,6.10
2019-03-12T07:51:53.729Z,5.80
2019-03-12T07:53:12.696Z,5.90
2019-03-12T07:53:59.392Z,5.50
2019-03-12T07:54:50.729Z,6.00
2019-03-12T07:55:50.729Z,5.80
2019-03-12T07:56:54.730Z,6.20
2019-03-12T07:58:12.232Z,5.60
2019-03-12T07:59:12.258Z,5.40
2019-03-12T07:59:51.228Z,5.30
2019-03-12T08:00:51.728Z,5.40
2019-03-12T08:01:51.729Z,5.50
2019-03-12T08:02:54.728Z,5.30
2019-03-12T08:03:51.746Z,5.40
2019-03-12T08:04:52.277Z,5.40
2019-03-12T08:05:52.228Z,4.90
2019-03-12T08:07:13.325Z,5.30
2019-03-12T08:08:17.230Z,5.60
2019-03-12T08:10:24.463Z,4.90
2019-03-12T08:14:53.134Z,4.90
2019-03-12T08:15:52.172Z,4.40
2019-03-12T08:18:06.533Z,4.50
2019-03-12T08:19:02.554Z,4.40
2019-03-12T08:20:23.551Z,4.60
2019-03-12T08:21:03.043Z,4.70
2019-03-12T08:22:04.497Z,4.50
2019-03-12T08:23:03.046Z,4.80
2019-03-12T08:24:06.540Z,4.40
2019-03-12T08:25:03.044Z,4.30
2019-03-12T08:26:03.540Z,4.20
2019-03-12T08:27:03.540Z,4.20
2019-03-12T08:28:03.540Z,4.40
2019-03-12T08:29:07.542Z,4.20
2019-03-12T08:30:04.042Z,3.90
2019-03-12T08:31:04.039Z,4.40
2019-03-12T08:32:04.053Z,3.80
2019-03-12T08:33:04.041Z,3.80
2019-03-12T08:34:04.537Z,3.60
2019-03-12T08:35:07.539Z,3.70
2019-03-12T08:36:04.537Z,3.00
2019-03-12T08:37:04.539Z,3.40
2019-03-12T08:38:05.039Z,3.40
2019-03-12T08:39:05.048Z,3.20
2019-03-12T08:40:09.049Z,3.20
2019-03-12T08:41:05.039Z,3.00
2019-03-12T08:42:05.539Z,2.70
2019-03-12T08:43:05.539Z,3.00
2019-03-12T08:44:05.540Z,3.20
2019-03-12T08:45:05.539Z,3.20
2019-03-12T08:47:41.189Z,3.10
2019-03-12T08:48:41.198Z,2.70
2019-03-12T08:49:41.213Z,3.00
2019-03-12T08:51:05.231Z,2.70
2019-03-12T08:51:45.193Z,2.70
2019-03-12T08:52:41.697Z,2.90
2019-03-12T08:54:02.696Z,3.20
2019-03-12T08:55:04.245Z,2.60
2019-03-12T08:56:03.221Z,2.60
2019-03-12T08:58:07.194Z,2.60
2019-03-12T09:00:14.427Z,2.80
2019-03-12T09:01:14.436Z,2.20
2019-03-12T09:02:14.437Z,2.70
2019-03-12T09:03:17.936Z,2.20
2019-03-12T09:04:14.936Z,2.80
2019-03-12T09:05:14.939Z,2.70
2019-03-12T09:06:14.935Z,2.50
2019-03-12T09:07:15.435Z,2.80
2019-03-12T09:08:19.436Z,2.60
2019-03-12T09:09:14.785Z,2.80
2019-03-12T09:10:15.440Z,2.50
2019-03-12T09:11:15.938Z,2.40
2019-03-12T09:12:15.935Z,2.20
2019-03-12T09:13:15.946Z,2.30
2019-03-12T09:14:19.941Z,2.60
2019-03-12T09:15:16.438Z,2.60
2019-03-12T09:16:16.436Z,2.40
2019-03-12T09:17:16.435Z,2.40
2019-03-12T09:18:16.435Z,2.30
2019-03-12T09:19:16.959Z,2.40
2019-03-12T09:20:19.935Z,2.80
2019-03-12T09:21:16.934Z,2.00
2019-03-12T09:22:37.957Z,2.20
2019-03-12T09:23:31.435Z,2.60
2019-03-12T09:24:17.435Z,2.80
2019-03-12T09:25:22.379Z,2.30
2019-03-12T09:26:17.435Z,2.50
2019-03-12T09:27:17.435Z,2.70
2019-03-12T09:28:17.931Z,2.30
2019-03-12T09:29:17.937Z,2.10
2019-03-12T09:30:21.435Z,2.40
2019-03-12T09:31:17.938Z,2.60
2019-03-12T09:32:18.434Z,2.50
2019-03-12T09:33:18.435Z,2.70
2019-03-12T09:34:18.442Z,2.50
2019-03-12T09:35:22.442Z,2.30
2019-03-12T09:37:50.676Z,2.40
2019-03-12T09:38:50.687Z,2.70
2019-03-12T09:39:50.683Z,2.20
2019-03-12T09:40:54.183Z,2.40
2019-03-12T09:41:51.183Z,2.70
2019-03-12T09:42:50.523Z,2.50
2019-03-12T09:43:51.188Z,2.80
2019-03-12T09:44:51.700Z,2.40
2019-03-12T09:45:54.181Z,3.00
2019-03-12T09:46:51.683Z,2.30
2019-03-12T09:47:51.682Z,2.40
2019-03-12T09:49:14.117Z,2.70
2019-03-12T09:49:52.183Z,2.50
2019-03-12T09:50:58.637Z,2.60
2019-03-12T09:51:52.193Z,2.50
2019-03-12T09:52:52.182Z,2.30
2019-03-12T09:53:52.683Z,2.10
2019-03-12T09:54:54.682Z,2.40
2019-03-12T09:55:56.689Z,2.20
2019-03-12T09:57:13.688Z,2.40
2019-03-12T09:58:14.188Z,2.30
2019-03-12T09:59:14.182Z,2.20
2019-03-12T09:59:52.528Z,2.50
2019-03-12T10:00:53.241Z,2.10
2019-03-12T10:01:59.392Z,1.90
2019-03-12T10:02:53.683Z,2.30
2019-03-12T10:04:14.787Z,2.20
2019-03-12T10:04:53.152Z,2.10
2019-03-12T10:05:54.181Z,2.30
2019-03-12T10:06:57.689Z,2.40
2019-03-12T10:07:54.181Z,2.30
2019-03-12T10:08:54.184Z,2.20
2019-03-12T10:09:54.681Z,1.90
2019-03-12T10:10:54.690Z,2.40
2019-03-12T10:11:54.687Z,2.60
2019-03-12T10:12:58.680Z,2.20
2019-03-12T10:13:55.181Z,2.30
2019-03-12T10:14:55.190Z,2.10
2019-03-12T10:15:55.189Z,2.10
2019-03-12T10:16:55.181Z,2.00
2019-03-12T10:17:55.685Z,2.40
2019-03-12T10:18:58.687Z,2.30
2019-03-12T10:19:55.687Z,2.40
2019-03-12T10:20:55.681Z,2.50
2019-03-12T10:21:56.184Z,2.20
2019-03-12T10:22:58.182Z,2.20
2019-03-12T10:24:21.181Z,1.90
2019-03-12T10:24:56.180Z,1.90
2019-03-12T10:25:56.682Z,1.80
2019-03-12T10:26:56.682Z,2.40
2019-03-12T10:27:56.680Z,2.70
2019-03-12T10:28:56.683Z,2.00
2019-03-12T10:30:01.182Z,2.20
2019-03-12T10:30:57.181Z,1.80
2019-03-12T10:31:57.189Z,2.10
2019-03-12T10:32:57.197Z,2.20
2019-03-12T10:33:57.682Z,2.00
2019-03-12T10:34:57.681Z,2.50
2019-03-12T10:36:24.319Z,1.80
2019-03-12T10:37:10.947Z,2.10
2019-03-12T10:37:57.272Z,2.30
2019-03-12T10:38:58.180Z,2.20
2019-03-12T10:40:19.185Z,2.10
2019-03-12T10:41:02.181Z,2.50
2019-03-12T10:45:23.711Z,2.20
2019-03-12T10:46:06.154Z,2.30
2019-03-12T10:47:02.651Z,2.10
2019-03-12T10:48:02.649Z,2.10
2019-03-12T10:49:36.636Z,2.10
2019-03-12T10:50:03.162Z,2.20
2019-03-12T10:51:06.648Z,2.40
2019-03-12T10:52:03.149Z,2.30
2019-03-12T10:53:03.148Z,2.30
2019-03-12T10:54:03.661Z,2.50
2019-03-12T10:55:13.113Z,2.20
2019-03-12T10:56:07.651Z,2.30
2019-03-12T10:57:03.665Z,2.10
2019-03-12T10:58:04.147Z,2.30
2019-03-12T10:59:25.155Z,2.50
2019-03-12T11:00:04.150Z,2.40
2019-03-12T11:01:04.150Z,2.30
2019-03-12T11:02:07.648Z,2.10
2019-03-12T11:03:04.648Z,2.50
2019-03-12T11:04:04.648Z,2.10
2019-03-12T11:05:04.655Z,2.00
2019-03-12T11:06:27.140Z,2.00
2019-03-12T11:07:16.590Z,2.30
2019-03-12T11:09:58.132Z,2.10
2019-03-12T11:10:38.075Z,1.90
2019-03-12T11:11:40.075Z,2.10
2019-03-12T11:12:40.651Z,2.20
2019-03-12T11:13:37.644Z,2.20
2019-03-12T11:14:37.641Z,2.40
2019-03-12T11:15:37.673Z,2.20
2019-03-12T11:16:37.651Z,2.00
2019-03-12T11:19:14.188Z,1.80
2019-03-12T11:20:14.197Z,2.00
2019-03-12T11:21:14.197Z,2.30
2019-03-12T11:22:14.698Z,2.70
2019-03-12T11:23:18.200Z,2.20
2019-03-12T11:24:14.697Z,2.20
2019-03-12T11:25:26.506Z,2.10
2019-03-12T11:26:14.291Z,2.30
2019-03-12T11:27:15.196Z,2.00
2019-03-12T11:28:18.198Z,2.40
2019-03-12T11:29:15.198Z,2.00
2019-03-12T11:30:15.710Z,2.50
2019-03-12T11:31:15.700Z,2.00
2019-03-12T11:32:15.715Z,2.10
2019-03-12T11:33:18.885Z,2.20
2019-03-12T11:34:16.199Z,2.30
2019-03-12T11:35:16.201Z,1.90
2019-03-12T11:36:16.202Z,2.00
2019-03-12T11:37:16.209Z,2.40
2019-03-12T11:38:16.249Z,2.10
2019-03-12T11:39:20.711Z,2.40
2019-03-12T11:40:16.832Z,2.20
2019-03-12T11:41:16.698Z,1.90
2019-03-12T11:42:16.697Z,2.60
2019-03-12T11:43:17.238Z,2.10
2019-03-12T11:44:17.198Z,2.00
2019-03-12T11:45:41.733Z,2.00
2019-03-12T11:46:17.199Z,1.80
2019-03-12T11:47:17.697Z,2.20
2019-03-12T11:48:17.791Z,2.00
2019-03-12T11:49:17.866Z,2.30
2019-03-12T11:50:21.954Z,2.10
2019-03-12T11:51:39.197Z,2.30
2019-03-12T11:52:18.238Z,2.00
2019-03-12T11:53:18.208Z,2.50
2019-03-12T11:54:17.798Z,2.20
2019-03-12T11:55:18.697Z,2.30
2019-03-12T11:56:43.850Z,1.90
2019-03-12T11:57:18.719Z,2.20
2019-03-12T11:58:18.695Z,2.30
2019-03-12T11:59:19.198Z,2.40
2019-03-12T12:00:21.215Z,2.30
2019-03-12T12:01:19.202Z,2.10
2019-03-12T12:02:45.163Z,2.50
2019-03-12T12:03:19.710Z,2.00
2019-03-12T12:04:19.698Z,2.20
2019-03-12T12:05:19.699Z,2.00
2019-03-12T12:06:19.715Z,2.20
2019-03-12T12:07:23.719Z,2.40
2019-03-12T12:08:20.227Z,2.50
2019-03-12T12:09:20.202Z,2.20
2019-03-12T12:10:20.205Z,2.40
2019-03-12T12:11:20.196Z,2.40
2019-03-12T12:12:20.705Z,1.60
2019-03-12T12:13:23.697Z,2.00
2019-03-12T12:14:20.699Z,2.30
2019-03-12T12:15:20.698Z,2.20
2019-03-12T12:16:46.131Z,2.30
2019-03-12T12:17:42.199Z,1.80
2019-03-12T12:18:25.204Z,1.90
2019-03-12T12:19:21.196Z,2.00
2019-03-12T12:20:29.458Z,1.90
2019-03-12T12:21:22.672Z,2.10
2019-03-12T12:23:56.664Z,2.40
2019-03-12T12:24:53.166Z,1.80
2019-03-12T12:25:53.666Z,1.80
2019-03-12T12:27:14.665Z,2.00
2019-03-12T12:27:53.724Z,1.90
2019-03-12T12:28:59.123Z,2.20
2019-03-12T12:29:54.166Z,1.90
2019-03-12T12:30:54.166Z,2.10
2019-03-12T12:31:56.167Z,2.30
2019-03-12T12:32:54.170Z,1.90
2019-03-12T12:33:54.166Z,1.70
2019-03-12T12:34:57.664Z,2.40
2019-03-12T12:35:54.666Z,2.20
2019-03-12T12:36:54.665Z,1.90
2019-03-12T12:37:54.671Z,2.30
2019-03-12T12:38:55.167Z,2.60
2019-03-12T12:39:58.681Z,2.40
2019-03-12T12:40:55.172Z,2.20
2019-03-12T12:41:55.168Z,2.20
2019-03-12T12:43:16.666Z,2.20
2019-03-12T12:43:55.670Z,2.00
2019-03-12T12:44:55.667Z,2.40
2019-03-12T12:46:20.721Z,2.50
2019-03-12T12:46:55.268Z,2.00
2019-03-12T12:47:56.176Z,2.20
2019-03-12T12:48:56.168Z,2.10
2019-03-12T12:49:56.167Z,2.20
2019-03-12T12:51:02.916Z,2.20
2019-03-12T12:51:59.664Z,2.00
2019-03-12T12:53:17.665Z,2.20
2019-03-12T12:53:56.665Z,1.80
2019-03-12T12:54:56.671Z,2.20
2019-03-12T12:56:18.185Z,2.40
2019-03-12T12:57:01.168Z,2.20
2019-03-12T12:57:57.165Z,2.00
2019-03-12T12:58:57.171Z,1.70
2019-03-12T12:59:57.670Z,2.30
2019-03-12T13:00:56.883Z,2.40
2019-03-12T13:01:57.665Z,2.20
2019-03-12T13:03:22.167Z,1.80
2019-03-12T13:03:58.171Z,1.90
2019-03-12T13:04:58.165Z,2.10
2019-03-12T13:05:58.165Z,2.00
2019-03-12T13:06:58.166Z,2.00
2019-03-12T13:08:02.179Z,2.20
2019-03-12T13:08:58.667Z,2.40
2019-03-12T13:09:58.679Z,2.20
2019-03-12T13:10:58.665Z,1.90
2019-03-12T13:14:08.910Z,1.70
2019-03-12T13:14:41.075Z,1.90
2019-03-12T13:17:02.160Z,1.80
2019-03-12T13:18:02.164Z,2.20
2019-03-12T13:19:06.662Z,2.10
2019-03-12T13:20:02.669Z,2.10
2019-03-12T13:21:02.662Z,2.30
2019-03-12T13:22:03.619Z,2.10
2019-03-12T13:23:24.162Z,1.70
2019-03-12T13:24:04.630Z,2.30
2019-03-12T13:25:06.166Z,2.80
2019-03-12T13:26:04.096Z,2.20
2019-03-12T13:27:03.162Z,2.70
2019-03-12T13:28:03.668Z,2.40
2019-03-12T13:29:24.665Z,2.20
2019-03-12T13:30:07.692Z,2.00
2019-03-12T13:31:03.665Z,2.00
2019-03-12T13:32:13.494Z,2.20
2019-03-12T13:33:25.170Z,1.90
2019-03-12T13:34:04.212Z,2.10
2019-03-12T13:35:04.662Z,2.00
2019-03-12T13:36:08.662Z,1.90
2019-03-12T13:37:04.659Z,2.20
2019-03-12T13:38:04.667Z,1.60
2019-03-12T13:39:04.693Z,2.00
2019-03-12T13:40:26.518Z,1.80
2019-03-12T13:41:11.168Z,2.10
2019-03-12T13:42:08.662Z,2.00
2019-03-12T13:43:05.233Z,2.10
2019-03-12T13:44:26.662Z,1.90
2019-03-12T13:45:05.680Z,1.80
2019-03-12T13:46:05.661Z,1.90
2019-03-12T13:47:09.662Z,1.80
2019-03-12T13:48:27.162Z,1.60
2019-03-12T13:49:06.181Z,1.80
2019-03-12T13:50:09.099Z,2.00
2019-03-12T13:51:06.171Z,2.10
2019-03-12T13:52:31.173Z,2.00
2019-03-12T13:53:06.662Z,1.80
2019-03-12T13:54:09.622Z,2.10
2019-03-12T13:55:06.666Z,1.80
2019-03-12T13:56:28.167Z,2.00
2019-03-12T13:57:07.161Z,2.20
2019-03-12T13:58:10.660Z,2.10
2019-03-12T13:59:28.160Z,2.20
2019-03-12T14:00:07.662Z,2.30
2019-03-12T14:01:07.660Z,2.10
2019-03-12T14:02:07.003Z,2.20
2019-03-12T14:03:12.161Z,2.10
2019-03-12T14:04:29.161Z,1.90
2019-03-12T14:05:29.157Z,2.00
2019-03-12T14:06:29.201Z,1.90
2019-03-12T14:07:29.161Z,1.90
2019-03-12T14:08:09.601Z,2.20
2019-03-12T14:09:12.160Z,1.60
2019-03-12T14:10:08.661Z,2.10
2019-03-12T14:11:08.662Z,2.60
2019-03-12T14:12:08.662Z,2.40
2019-03-12T14:13:09.164Z,1.80
2019-03-12T14:14:13.160Z,2.40
2019-03-12T14:15:10.594Z,2.00
2019-03-12T14:16:09.159Z,2.30
2019-03-12T14:17:30.660Z,2.20
2019-03-12T14:18:30.660Z,1.90
2019-03-12T14:19:09.666Z,2.00
2019-03-12T14:20:13.160Z,1.80
2019-03-12T14:21:10.160Z,2.30
2019-03-12T14:22:31.160Z,2.20
2019-03-12T14:23:10.167Z,2.10
2019-03-12T14:24:10.160Z,2.40
2019-03-12T14:25:14.160Z,2.40
2019-03-12T14:26:10.659Z,1.80
2019-03-12T14:27:10.660Z,2.10
2019-03-12T14:28:10.663Z,1.90
2019-03-12T14:29:13.094Z,2.10
2019-03-12T14:30:11.161Z,1.60
2019-03-12T14:31:15.161Z,1.70
2019-03-12T14:32:12.199Z,1.70
2019-03-12T14:33:11.163Z,1.50
2019-03-12T14:34:11.660Z,2.30
2019-03-12T14:35:11.660Z,2.00
2019-03-12T14:36:36.661Z,1.90
2019-03-12T14:37:11.663Z,2.10
2019-03-12T14:38:33.168Z,2.30
2019-03-12T14:39:12.159Z,1.90
2019-03-12T14:40:12.181Z,2.00
2019-03-12T14:41:12.160Z,1.80
2019-03-12T14:42:15.156Z,1.80
2019-03-12T14:43:12.665Z,1.70
2019-03-12T14:45:44.225Z,2.00
2019-03-12T14:46:45.154Z,2.10
2019-03-12T14:47:49.159Z,2.20
2019-03-12T14:48:45.162Z,1.90
2019-03-12T14:49:45.156Z,1.80
2019-03-12T14:50:45.658Z,1.70
2019-03-12T14:51:46.617Z,2.40
2019-03-12T14:52:45.656Z,1.90
2019-03-12T14:53:49.156Z,1.90
2019-03-12T14:56:17.392Z,1.80
2019-03-12T14:57:17.400Z,2.00
2019-03-12T14:58:17.401Z,1.50
2019-03-12T14:59:21.400Z,1.60
2019-03-12T15:00:38.901Z,2.10
2019-03-12T15:01:17.902Z,1.70
2019-03-12T15:02:17.902Z,1.90
2019-03-12T15:03:18.402Z,1.60
2019-03-12T15:04:18.400Z,1.80
2019-03-12T15:05:21.401Z,1.70
2019-03-12T15:06:18.402Z,1.90
2019-03-12T15:07:18.900Z,1.60
2019-03-12T15:08:18.900Z,1.70
2019-03-12T15:09:39.900Z,1.90
2019-03-12T15:11:54.127Z,1.60
2019-03-12T15:12:54.143Z,1.90
2019-03-12T15:13:54.138Z,1.80
2019-03-12T15:14:54.631Z,1.70
2019-03-12T15:16:19.132Z,1.90
2019-03-12T15:16:54.632Z,1.80
2019-03-12T15:17:54.629Z,1.70
2019-03-12T15:18:55.140Z,2.00
2019-03-12T15:20:16.139Z,1.60
2019-03-12T15:21:19.638Z,1.80
2019-03-12T15:21:55.137Z,1.50
2019-03-12T15:22:55.644Z,1.60
2019-03-12T15:23:55.633Z,1.70
2019-03-12T15:24:55.634Z,2.10
2019-03-12T15:26:20.632Z,2.00
2019-03-12T15:27:17.133Z,1.50
2019-03-12T15:29:27.499Z,1.60
2019-03-12T15:30:26.969Z,1.90
2019-03-12T15:31:45.506Z,1.70
2019-03-12T15:32:28.005Z,2.00
2019-03-12T15:33:28.009Z,1.60
2019-03-12T15:34:28.006Z,1.70
2019-03-12T15:35:28.006Z,1.80
2019-03-12T15:36:28.508Z,1.50
2019-03-12T15:37:53.005Z,1.80
2019-03-12T15:38:28.506Z,1.70
2019-03-12T15:39:28.505Z,1.90
2019-03-12T15:40:29.006Z,1.80
2019-03-12T15:41:29.008Z,1.50
2019-03-12T15:42:29.007Z,1.70
2019-03-12T15:43:33.006Z,1.70
2019-03-12T15:44:50.513Z,2.50
2019-03-12T15:45:29.505Z,2.20
2019-03-12T15:46:29.506Z,2.00
2019-03-12T15:47:29.505Z,1.80
2019-03-12T15:48:54.505Z,1.90
2019-03-12T15:49:30.005Z,1.80
2019-03-12T15:50:30.005Z,1.90
2019-03-12T15:51:30.011Z,1.50
2019-03-12T15:52:51.505Z,1.70
2019-03-12T15:53:30.510Z,1.80
2019-03-12T15:54:55.503Z,1.90
2019-03-12T15:55:30.510Z,1.60
2019-03-12T15:56:31.006Z,1.60
2019-03-12T15:57:31.098Z,1.70
2019-03-12T15:58:52.010Z,2.00
2019-03-12T15:59:34.510Z,1.70
2019-03-12T16:00:31.509Z,1.80
2019-03-12T16:01:31.505Z,1.40
2019-03-12T16:02:33.940Z,1.60
2019-03-12T16:03:31.503Z,1.90